sensor_id;sensor_type;location;lat;lon;timestamp;pressure;altitude;pressure_sealevel;temperature;humidity
5609;BME280;2826;51.354;9.588;2023-05-20T00:01:04;98813.59;;;14.82;58.21
5609;BME280;2826;51.354;9.588;2023-05-20T00:03:30;98820.56;;;14.81;58.50
5609;BME280;2826;51.354;9.588;2023-05-20T00:05:57;98806.81;;;14.78;58.84
5609;BME280;2826;51.354;9.588;2023-05-20T00:08:23;98811.66;;;14.85;58.78
5609;BME280;2826;51.354;9.588;2023-05-20T00:10:50;98805.50;;;14.86;58.40
5609;BME280;2826;51.354;9.588;2023-05-20T00:13:18;98805.44;;;14.88;58.50
5609;BME280;2826;51.354;9.588;2023-05-20T00:15:44;98797.06;;;14.81;58.62
5609;BME280;2826;51.354;9.588;2023-05-20T00:18:11;98786.03;;;14.74;58.73
5609;BME280;2826;51.354;9.588;2023-05-20T00:20:38;98806.31;;;14.88;58.60
5609;BME280;2826;51.354;9.588;2023-05-20T00:23:05;98808.00;;;14.89;58.75
5609;BME280;2826;51.354;9.588;2023-05-20T00:25:31;98807.84;;;14.93;58.71
5609;BME280;2826;51.354;9.588;2023-05-20T00:27:58;98812.34;;;14.89;58.80
5609;BME280;2826;51.354;9.588;2023-05-20T00:30:26;98805.31;;;14.91;58.50
5609;BME280;2826;51.354;9.588;2023-05-20T00:32:53;98796.69;;;14.89;58.95
5609;BME280;2826;51.354;9.588;2023-05-20T00:35:20;98800.28;;;14.86;59.30
5609;BME280;2826;51.354;9.588;2023-05-20T00:37:46;98791.63;;;14.86;59.04
5609;BME280;2826;51.354;9.588;2023-05-20T00:40:13;98797.47;;;14.91;58.64
5609;BME280;2826;51.354;9.588;2023-05-20T00:42:40;98793.00;;;14.93;58.97
5609;BME280;2826;51.354;9.588;2023-05-20T00:45:07;98782.00;;;14.86;59.31
5609;BME280;2826;51.354;9.588;2023-05-20T00:47:35;98779.34;;;14.88;59.57
5609;BME280;2826;51.354;9.588;2023-05-20T00:50:02;98765.66;;;14.83;58.93
5609;BME280;2826;51.354;9.588;2023-05-20T00:52:30;98775.03;;;14.87;59.37
5609;BME280;2826;51.354;9.588;2023-05-20T00:54:57;98783.56;;;14.91;59.28
5609;BME280;2826;51.354;9.588;2023-05-20T00:57:25;98782.00;;;14.86;59.67
5609;BME280;2826;51.354;9.588;2023-05-20T00:59:52;98775.09;;;14.85;59.49
5609;BME280;2826;51.354;9.588;2023-05-20T01:02:19;98771.94;;;14.79;60.00
5609;BME280;2826;51.354;9.588;2023-05-20T01:04:47;98773.69;;;14.78;59.93
5609;BME280;2826;51.354;9.588;2023-05-20T01:07:15;98762.53;;;14.74;59.82
5609;BME280;2826;51.354;9.588;2023-05-20T01:09:42;98770.19;;;14.79;60.01
5609;BME280;2826;51.354;9.588;2023-05-20T01:12:12;98765.78;;;14.80;59.77
5609;BME280;2826;51.354;9.588;2023-05-20T01:14:46;98758.81;;;14.80;60.41
5609;BME280;2826;51.354;9.588;2023-05-20T01:17:14;98752.91;;;14.76;60.39
5609;BME280;2826;51.354;9.588;2023-05-20T01:19:43;98751.91;;;14.79;60.39
5609;BME280;2826;51.354;9.588;2023-05-20T01:22:13;98754.66;;;14.76;60.83
5609;BME280;2826;51.354;9.588;2023-05-20T01:24:43;98754.78;;;14.73;60.84
5609;BME280;2826;51.354;9.588;2023-05-20T01:27:10;98755.53;;;14.76;60.56
5609;BME280;2826;51.354;9.588;2023-05-20T01:29:41;98753.09;;;14.72;61.21
5609;BME280;2826;51.354;9.588;2023-05-20T01:32:11;98755.69;;;14.72;60.94
5609;BME280;2826;51.354;9.588;2023-05-20T01:34:40;98751.22;;;14.74;61.48
5609;BME280;2826;51.354;9.588;2023-05-20T01:37:09;98754.06;;;14.69;61.19
5609;BME280;2826;51.354;9.588;2023-05-20T01:39:38;98753.09;;;14.72;61.47
5609;BME280;2826;51.354;9.588;2023-05-20T01:42:08;98748.63;;;14.74;61.10
5609;BME280;2826;51.354;9.588;2023-05-20T01:44:35;98752.31;;;14.70;61.26
5609;BME280;2826;51.354;9.588;2023-05-20T01:47:03;98757.53;;;14.70;61.42
5609;BME280;2826;51.354;9.588;2023-05-20T01:49:30;98760.22;;;14.68;61.50
5609;BME280;2826;51.354;9.588;2023-05-20T01:51:57;98756.63;;;14.71;61.23
5609;BME280;2826;51.354;9.588;2023-05-20T01:54:24;98758.69;;;14.64;61.58
5609;BME280;2826;51.354;9.588;2023-05-20T01:56:51;98737.88;;;14.43;62.40
5609;BME280;2826;51.354;9.588;2023-05-20T01:59:21;98751.03;;;14.59;62.13
5609;BME280;2826;51.354;9.588;2023-05-20T02:01:49;98746.69;;;14.60;61.59
5609;BME280;2826;51.354;9.588;2023-05-20T02:04:15;98742.03;;;14.67;61.65
5609;BME280;2826;51.354;9.588;2023-05-20T02:06:43;98744.84;;;14.62;61.34
5609;BME280;2826;51.354;9.588;2023-05-20T02:09:10;98740.41;;;14.64;61.25
5609;BME280;2826;51.354;9.588;2023-05-20T02:11:36;98748.50;;;14.58;61.91
5609;BME280;2826;51.354;9.588;2023-05-20T02:14:03;98747.81;;;14.54;61.83
5609;BME280;2826;51.354;9.588;2023-05-20T02:16:31;98742.09;;;14.46;62.25
5609;BME280;2826;51.354;9.588;2023-05-20T02:18:58;98741.09;;;14.48;62.45
5609;BME280;2826;51.354;9.588;2023-05-20T02:21:27;98741.09;;;14.48;62.59
5609;BME280;2826;51.354;9.588;2023-05-20T02:23:53;98748.00;;;14.49;62.47
5609;BME280;2826;51.354;9.588;2023-05-20T02:26:20;98741.09;;;14.48;62.61
5609;BME280;2826;51.354;9.588;2023-05-20T02:28:47;98749.00;;;14.47;62.97
5609;BME280;2826;51.354;9.588;2023-05-20T02:31:15;98737.88;;;14.43;63.25
5609;BME280;2826;51.354;9.588;2023-05-20T02:33:43;98737.38;;;14.35;63.73
5609;BME280;2826;51.354;9.588;2023-05-20T02:36:11;98731.59;;;14.28;63.71
5609;BME280;2826;51.354;9.588;2023-05-20T02:38:38;98735.81;;;14.31;63.54
5609;BME280;2826;51.354;9.588;2023-05-20T02:41:05;98734.84;;;14.33;63.81
5609;BME280;2826;51.354;9.588;2023-05-20T02:43:32;98749.59;;;14.34;63.45
5609;BME280;2826;51.354;9.588;2023-05-20T02:46:00;98746.88;;;14.36;63.93
5609;BME280;2826;51.354;9.588;2023-05-20T02:48:26;98746.88;;;14.36;63.87
5609;BME280;2826;51.354;9.588;2023-05-20T02:50:55;98751.06;;;14.40;63.42
5609;BME280;2826;51.354;9.588;2023-05-20T02:53:21;98751.06;;;14.40;63.14
5609;BME280;2826;51.354;9.588;2023-05-20T02:55:48;98696.41;;;13.98;63.58
5609;BME280;2826;51.354;9.588;2023-05-20T02:58:16;98717.97;;;14.02;64.15
5609;BME280;2826;51.354;9.588;2023-05-20T03:00:42;98750.84;;;14.26;64.36
5609;BME280;2826;51.354;9.588;2023-05-20T03:03:09;98745.50;;;14.29;63.73
5609;BME280;2826;51.354;9.588;2023-05-20T03:05:38;98755.88;;;14.30;63.87
5609;BME280;2826;51.354;9.588;2023-05-20T03:08:08;98745.50;;;14.29;64.18
5609;BME280;2826;51.354;9.588;2023-05-20T03:10:35;98756.00;;;14.27;64.35
5609;BME280;2826;51.354;9.588;2023-05-20T03:13:06;98757.06;;;14.23;64.34
5609;BME280;2826;51.354;9.588;2023-05-20T03:15:35;98756.28;;;14.21;64.28
5609;BME280;2826;51.354;9.588;2023-05-20T03:18:03;98732.94;;;14.18;64.24
5609;BME280;2826;51.354;9.588;2023-05-20T03:20:30;98757.84;;;14.25;64.94
5609;BME280;2826;51.354;9.588;2023-05-20T03:22:57;98746.63;;;14.23;64.76
5609;BME280;2826;51.354;9.588;2023-05-20T03:25:26;98746.91;;;14.17;64.98
5609;BME280;2826;51.354;9.588;2023-05-20T03:27:53;98749.00;;;14.08;65.85
5609;BME280;2826;51.354;9.588;2023-05-20T03:30:20;98752.03;;;13.99;66.28
5609;BME280;2826;51.354;9.588;2023-05-20T03:32:47;98747.72;;;13.98;66.60
5609;BME280;2826;51.354;9.588;2023-05-20T03:35:14;98740.16;;;13.92;66.36
5609;BME280;2826;51.354;9.588;2023-05-20T03:37:41;98734.84;;;13.95;66.33
5609;BME280;2826;51.354;9.588;2023-05-20T03:40:09;98747.38;;;14.06;66.60
5609;BME280;2826;51.354;9.588;2023-05-20T03:42:38;98746.94;;;13.96;66.93
5609;BME280;2826;51.354;9.588;2023-05-20T03:45:06;98748.44;;;14.02;66.60
5609;BME280;2826;51.354;9.588;2023-05-20T03:47:40;98745.31;;;13.93;67.37
5609;BME280;2826;51.354;9.588;2023-05-20T03:50:07;98746.88;;;13.97;67.14
5609;BME280;2826;51.354;9.588;2023-05-20T03:52:34;98745.31;;;13.93;67.88
5609;BME280;2826;51.354;9.588;2023-05-20T03:55:01;98741.72;;;13.96;67.75
5609;BME280;2826;51.354;9.588;2023-05-20T03:57:28;98730.53;;;13.94;67.86
5609;BME280;2826;51.354;9.588;2023-05-20T03:59:58;98732.47;;;13.89;67.92
5609;BME280;2826;51.354;9.588;2023-05-20T04:02:29;98725.63;;;13.86;68.65
5609;BME280;2826;51.354;9.588;2023-05-20T04:04:56;98729.38;;;13.80;68.86
5609;BME280;2826;51.354;9.588;2023-05-20T04:07:25;98722.28;;;13.84;68.79
5609;BME280;2826;51.354;9.588;2023-05-20T04:09:54;98730.09;;;13.84;69.28
5609;BME280;2826;51.354;9.588;2023-05-20T04:12:21;98725.97;;;13.78;69.19
5609;BME280;2826;51.354;9.588;2023-05-20T04:14:51;98719.66;;;13.84;69.59
5609;BME280;2826;51.354;9.588;2023-05-20T04:17:21;98712.53;;;13.88;69.53
5609;BME280;2826;51.354;9.588;2023-05-20T04:19:48;98715.28;;;13.84;69.72
5609;BME280;2826;51.354;9.588;2023-05-20T04:22:15;98712.66;;;13.84;69.81
5609;BME280;2826;51.354;9.588;2023-05-20T04:24:42;98717.69;;;13.89;69.59
5609;BME280;2826;51.354;9.588;2023-05-20T04:27:10;98729.16;;;13.85;69.79
5609;BME280;2826;51.354;9.588;2023-05-20T04:29:38;98738.47;;;13.91;70.03
5609;BME280;2826;51.354;9.588;2023-05-20T04:32:06;98742.38;;;14.01;69.24
5609;BME280;2826;51.354;9.588;2023-05-20T04:34:37;98745.84;;;14.02;69.45
5609;BME280;2826;51.354;9.588;2023-05-20T04:37:04;98749.25;;;14.02;69.30
5609;BME280;2826;51.354;9.588;2023-05-20T04:39:32;98747.38;;;14.06;69.43
5609;BME280;2826;51.354;9.588;2023-05-20T04:42:00;98742.00;;;14.09;69.37
5609;BME280;2826;51.354;9.588;2023-05-20T04:44:27;98744.44;;;14.14;69.08
5609;BME280;2826;51.354;9.588;2023-05-20T04:46:54;98731.38;;;14.14;69.43
5609;BME280;2826;51.354;9.588;2023-05-20T04:49:22;98733.94;;;14.15;69.36
5609;BME280;2826;51.354;9.588;2023-05-20T04:51:51;98732.72;;;14.22;69.06
5609;BME280;2826;51.354;9.588;2023-05-20T04:54:20;98729.41;;;14.19;69.51
5609;BME280;2826;51.354;9.588;2023-05-20T04:56:46;98728.66;;;14.17;69.80
5609;BME280;2826;51.354;9.588;2023-05-20T04:59:13;98729.53;;;14.16;69.87
5609;BME280;2826;51.354;9.588;2023-05-20T05:01:40;98719.41;;;14.09;70.37
5609;BME280;2826;51.354;9.588;2023-05-20T05:04:07;98718.47;;;14.10;70.35
5609;BME280;2826;51.354;9.588;2023-05-20T05:06:34;98721.66;;;14.17;70.13
5609;BME280;2826;51.354;9.588;2023-05-20T05:09:02;98710.81;;;14.07;70.48
5609;BME280;2826;51.354;9.588;2023-05-20T05:11:29;98713.13;;;14.14;70.58
5609;BME280;2826;51.354;9.588;2023-05-20T05:13:56;98714.97;;;14.11;70.37
5609;BME280;2826;51.354;9.588;2023-05-20T05:16:25;98695.94;;;14.09;70.02
5609;BME280;2826;51.354;9.588;2023-05-20T05:18:51;98699.09;;;14.16;70.55
5609;BME280;2826;51.354;9.588;2023-05-20T05:21:18;98714.88;;;14.13;70.85
5609;BME280;2826;51.354;9.588;2023-05-20T05:23:46;98715.53;;;14.18;70.76
5609;BME280;2826;51.354;9.588;2023-05-20T05:26:14;98722.44;;;14.19;70.89
5609;BME280;2826;51.354;9.588;2023-05-20T05:28:43;98713.91;;;14.16;70.81
5609;BME280;2826;51.354;9.588;2023-05-20T05:31:10;98720.47;;;14.24;70.22
5609;BME280;2826;51.354;9.588;2023-05-20T05:33:36;98729.06;;;14.27;70.37
5609;BME280;2826;51.354;9.588;2023-05-20T05:36:03;98727.72;;;14.37;69.85
5609;BME280;2826;51.354;9.588;2023-05-20T05:38:31;98719.19;;;14.33;69.92
5609;BME280;2826;51.354;9.588;2023-05-20T05:40:57;98715.88;;;14.49;69.51
5609;BME280;2826;51.354;9.588;2023-05-20T05:43:25;98715.88;;;14.49;69.54
5609;BME280;2826;51.354;9.588;2023-05-20T05:45:52;98724.47;;;14.51;69.70
5609;BME280;2826;51.354;9.588;2023-05-20T05:48:19;98726.19;;;14.52;69.38
5609;BME280;2826;51.354;9.588;2023-05-20T05:50:47;98722.50;;;14.56;69.23
5609;BME280;2826;51.354;9.588;2023-05-20T05:53:16;98722.91;;;14.66;69.15
5609;BME280;2826;51.354;9.588;2023-05-20T05:55:46;98723.75;;;14.67;69.13
5609;BME280;2826;51.354;9.588;2023-05-20T05:58:13;98720.22;;;14.68;68.65
5609;BME280;2826;51.354;9.588;2023-05-20T06:00:42;98721.63;;;14.75;68.39
5609;BME280;2826;51.354;9.588;2023-05-20T06:03:08;98722.75;;;14.88;68.06
5609;BME280;2826;51.354;9.588;2023-05-20T06:05:36;98721.00;;;14.70;68.55
5609;BME280;2826;51.354;9.588;2023-05-20T06:08:03;98728.50;;;14.78;68.03
5609;BME280;2826;51.354;9.588;2023-05-20T06:10:32;98730.25;;;14.77;68.38
5609;BME280;2826;51.354;9.588;2023-05-20T06:12:59;98730.28;;;14.75;68.52
5609;BME280;2826;51.354;9.588;2023-05-20T06:15:26;98724.81;;;14.82;68.27
5609;BME280;2826;51.354;9.588;2023-05-20T06:17:54;98727.97;;;14.88;68.54
5609;BME280;2826;51.354;9.588;2023-05-20T06:20:21;98726.50;;;14.83;68.20
5609;BME280;2826;51.354;9.588;2023-05-20T06:22:48;98726.91;;;14.93;68.02
5609;BME280;2826;51.354;9.588;2023-05-20T06:25:14;98724.81;;;14.82;68.60
5609;BME280;2826;51.354;9.588;2023-05-20T06:27:44;98706.41;;;14.66;68.74
5609;BME280;2826;51.354;9.588;2023-05-20T06:30:14;98720.66;;;14.78;68.69
5609;BME280;2826;51.354;9.588;2023-05-20T06:32:41;98726.25;;;14.87;68.62
5609;BME280;2826;51.354;9.588;2023-05-20T06:35:10;98709.16;;;14.82;68.73
5609;BME280;2826;51.354;9.588;2023-05-20T06:37:37;98721.13;;;14.86;68.95
5609;BME280;2826;51.354;9.588;2023-05-20T06:40:05;98714.69;;;14.93;68.77
5609;BME280;2826;51.354;9.588;2023-05-20T06:42:33;98724.28;;;14.93;69.14
5609;BME280;2826;51.354;9.588;2023-05-20T06:45:04;98712.38;;;14.87;68.78
5609;BME280;2826;51.354;9.588;2023-05-20T06:47:35;98712.25;;;14.90;69.22
5609;BME280;2826;51.354;9.588;2023-05-20T06:50:02;98713.84;;;14.93;68.78
5609;BME280;2826;51.354;9.588;2023-05-20T06:52:31;98708.38;;;14.97;68.94
5609;BME280;2826;51.354;9.588;2023-05-20T06:54:57;98632.31;;;14.50;68.70
5609;BME280;2826;51.354;9.588;2023-05-20T06:57:24;98706.94;;;15.09;68.01
5609;BME280;2826;51.354;9.588;2023-05-20T06:59:51;98706.19;;;15.07;68.04
5609;BME280;2826;51.354;9.588;2023-05-20T07:02:19;98704.03;;;15.15;67.98
5609;BME280;2826;51.354;9.588;2023-05-20T07:04:47;98701.03;;;15.06;67.75
5609;BME280;2826;51.354;9.588;2023-05-20T07:07:14;98672.75;;;14.79;68.08
5609;BME280;2826;51.354;9.588;2023-05-20T07:09:42;98701.03;;;15.06;67.77
5609;BME280;2826;51.354;9.588;2023-05-20T07:12:09;98701.41;;;14.98;68.32
5609;BME280;2826;51.354;9.588;2023-05-20T07:14:35;98705.25;;;15.08;68.02
5609;BME280;2826;51.354;9.588;2023-05-20T07:17:04;98645.78;;;14.78;68.38
5609;BME280;2826;51.354;9.588;2023-05-20T07:19:31;98712.00;;;15.30;67.80
5609;BME280;2826;51.354;9.588;2023-05-20T07:21:58;98704.31;;;15.45;67.35
5609;BME280;2826;51.354;9.588;2023-05-20T07:24:34;98703.81;;;15.54;67.24
5609;BME280;2826;51.354;9.588;2023-05-20T07:27:04;98705.66;;;15.70;66.94
5609;BME280;2826;51.354;9.588;2023-05-20T07:29:31;98699.47;;;15.88;66.44
5609;BME280;2826;51.354;9.588;2023-05-20T07:31:58;98704.16;;;15.81;65.49
5609;BME280;2826;51.354;9.588;2023-05-20T07:34:25;98707.47;;;15.85;65.69
5609;BME280;2826;51.354;9.588;2023-05-20T07:36:52;98696.84;;;15.88;65.49
5609;BME280;2826;51.354;9.588;2023-05-20T07:39:20;98697.25;;;15.80;65.39
5609;BME280;2826;51.354;9.588;2023-05-20T07:41:47;98703.16;;;15.84;64.95
5609;BME280;2826;51.354;9.588;2023-05-20T07:44:15;98701.56;;;15.81;65.09
5609;BME280;2826;51.354;9.588;2023-05-20T07:46:47;98672.25;;;15.59;65.54
5609;BME280;2826;51.354;9.588;2023-05-20T07:49:14;98701.19;;;15.72;66.08
5609;BME280;2826;51.354;9.588;2023-05-20T07:51:41;98697.41;;;15.77;65.85
5609;BME280;2826;51.354;9.588;2023-05-20T07:54:07;98696.47;;;15.78;65.93
5609;BME280;2826;51.354;9.588;2023-05-20T07:56:35;98699.16;;;15.77;66.06
5609;BME280;2826;51.354;9.588;2023-05-20T07:59:02;98694.28;;;15.71;65.23
5609;BME280;2826;51.354;9.588;2023-05-20T08:01:36;98695.56;;;15.79;66.14
5609;BME280;2826;51.354;9.588;2023-05-20T08:04:03;98689.06;;;15.87;65.95
5609;BME280;2826;51.354;9.588;2023-05-20T08:06:30;98691.06;;;15.99;65.32
5609;BME280;2826;51.354;9.588;2023-05-20T08:08:57;98687.44;;;16.02;64.87
5609;BME280;2826;51.354;9.588;2023-05-20T08:11:29;98688.22;;;16.04;65.08
5609;BME280;2826;51.354;9.588;2023-05-20T08:13:56;98684.25;;;16.13;65.25
5609;BME280;2826;51.354;9.588;2023-05-20T08:16:25;98687.28;;;16.21;64.68
5609;BME280;2826;51.354;9.588;2023-05-20T08:18:53;98690.25;;;16.31;64.57
5609;BME280;2826;51.354;9.588;2023-05-20T08:21:20;98688.31;;;16.35;63.93
5609;BME280;2826;51.354;9.588;2023-05-20T08:23:46;98694.03;;;16.41;63.91
5609;BME280;2826;51.354;9.588;2023-05-20T08:26:13;98688.97;;;16.54;63.93
5609;BME280;2826;51.354;9.588;2023-05-20T08:28:41;98686.09;;;16.59;62.97
5609;BME280;2826;51.354;9.588;2023-05-20T08:31:08;98684.56;;;16.71;62.84
5609;BME280;2826;51.354;9.588;2023-05-20T08:33:35;98682.69;;;16.73;62.47
5609;BME280;2826;51.354;9.588;2023-05-20T08:36:04;98677.63;;;16.70;62.58
5609;BME280;2826;51.354;9.588;2023-05-20T08:38:31;98676.63;;;16.72;62.07
5609;BME280;2826;51.354;9.588;2023-05-20T08:40:58;98680.75;;;16.77;61.89
5609;BME280;2826;51.354;9.588;2023-05-20T08:43:25;98687.13;;;16.87;62.33
5609;BME280;2826;51.354;9.588;2023-05-20T08:45:52;98688.56;;;16.93;62.11
5609;BME280;2826;51.354;9.588;2023-05-20T08:48:23;98683.88;;;17.14;61.77
5609;BME280;2826;51.354;9.588;2023-05-20T08:50:52;98675.22;;;17.28;61.38
5609;BME280;2826;51.354;9.588;2023-05-20T08:53:21;98668.09;;;17.30;60.53
5609;BME280;2826;51.354;9.588;2023-05-20T08:55:52;98673.31;;;17.30;60.54
5609;BME280;2826;51.354;9.588;2023-05-20T08:58:20;98677.75;;;17.30;59.85
5609;BME280;2826;51.354;9.588;2023-05-20T09:00:47;98667.22;;;17.15;59.92
5609;BME280;2826;51.354;9.588;2023-05-20T09:03:14;98677.03;;;17.11;60.65
5609;BME280;2826;51.354;9.588;2023-05-20T09:05:41;98685.47;;;17.17;60.54
5609;BME280;2826;51.354;9.588;2023-05-20T09:08:08;98676.97;;;16.97;60.69
5609;BME280;2826;51.354;9.588;2023-05-20T09:10:37;98686.25;;;17.03;60.57
5609;BME280;2826;51.354;9.588;2023-05-20T09:13:05;98683.06;;;17.14;60.82
5609;BME280;2826;51.354;9.588;2023-05-20T09:15:32;98687.03;;;17.05;59.83
5609;BME280;2826;51.354;9.588;2023-05-20T09:17:59;98677.72;;;16.99;60.96
5609;BME280;2826;51.354;9.588;2023-05-20T09:20:27;98677.03;;;17.11;60.81
5609;BME280;2826;51.354;9.588;2023-05-20T09:22:58;98674.91;;;17.18;60.36
5609;BME280;2826;51.354;9.588;2023-05-20T09:25:24;98675.47;;;17.23;60.51
5609;BME280;2826;51.354;9.588;2023-05-20T09:27:52;98653.38;;;17.13;60.43
5609;BME280;2826;51.354;9.588;2023-05-20T09:30:19;98673.63;;;17.26;60.73
5609;BME280;2826;51.354;9.588;2023-05-20T09:32:52;98679.25;;;17.48;60.98
5609;BME280;2826;51.354;9.588;2023-05-20T09:35:19;98681.22;;;17.74;60.27
5609;BME280;2826;51.354;9.588;2023-05-20T09:37:46;98683.19;;;17.99;58.79
5609;BME280;2826;51.354;9.588;2023-05-20T09:40:15;98688.06;;;18.06;57.84
5609;BME280;2826;51.354;9.588;2023-05-20T09:42:49;98680.56;;;18.14;56.74
5609;BME280;2826;51.354;9.588;2023-05-20T09:45:19;98684.56;;;18.20;56.52
5609;BME280;2826;51.354;9.588;2023-05-20T09:47:47;98686.47;;;18.18;56.66
5609;BME280;2826;51.354;9.588;2023-05-20T09:50:16;98685.78;;;18.28;56.31
5609;BME280;2826;51.354;9.588;2023-05-20T09:52:46;98684.41;;;18.23;57.16
5609;BME280;2826;51.354;9.588;2023-05-20T09:55:13;98653.94;;;18.06;57.20
5609;BME280;2826;51.354;9.588;2023-05-20T09:57:40;98650.75;;;18.00;56.88
5609;BME280;2826;51.354;9.588;2023-05-20T10:00:08;98686.94;;;18.24;56.81
5609;BME280;2826;51.354;9.588;2023-05-20T10:02:43;98691.78;;;18.31;56.28
5609;BME280;2826;51.354;9.588;2023-05-20T10:05:14;98685.47;;;18.33;56.69
5609;BME280;2826;51.354;9.588;2023-05-20T10:08:21;98688.78;;;18.37;56.14
5609;BME280;2826;51.354;9.588;2023-05-20T10:10:57;98686.94;;;18.52;56.13
5609;BME280;2826;51.354;9.588;2023-05-20T10:13:52;98682.63;;;18.78;56.16
5609;BME280;2826;51.354;9.588;2023-05-20T10:16:29;98680.13;;;18.90;55.23
5609;BME280;2826;51.354;9.588;2023-05-20T10:19:07;98676.53;;;19.18;55.32
5609;BME280;2826;51.354;9.588;2023-05-20T10:21:37;98670.34;;;19.32;54.00
5609;BME280;2826;51.354;9.588;2023-05-20T10:24:07;98665.69;;;19.75;53.92
5609;BME280;2826;51.354;9.588;2023-05-20T10:26:35;98663.47;;;19.82;52.92
5609;BME280;2826;51.354;9.588;2023-05-20T10:29:13;98665.56;;;19.90;52.23
5609;BME280;2826;51.354;9.588;2023-05-20T10:31:43;98658.31;;;19.80;52.25
5609;BME280;2826;51.354;9.588;2023-05-20T10:34:14;98664.00;;;19.74;52.15
5609;BME280;2826;51.354;9.588;2023-05-20T10:36:44;98643.28;;;19.56;51.93
5609;BME280;2826;51.354;9.588;2023-05-20T10:39:15;98655.28;;;19.61;52.28
5609;BME280;2826;51.354;9.588;2023-05-20T10:41:42;98650.88;;;19.61;51.85
5609;BME280;2826;51.354;9.588;2023-05-20T10:44:09;98652.44;;;19.64;52.58
5609;BME280;2826;51.354;9.588;2023-05-20T10:46:35;98656.22;;;19.72;53.19
5609;BME280;2826;51.354;9.588;2023-05-20T10:49:03;98649.69;;;19.78;51.86
5609;BME280;2826;51.354;9.588;2023-05-20T10:51:35;98646.25;;;20.15;51.90
5609;BME280;2826;51.354;9.588;2023-05-20T10:54:02;98652.88;;;20.21;51.64
5609;BME280;2826;51.354;9.588;2023-05-20T10:56:28;98639.47;;;20.24;49.93
5609;BME280;2826;51.354;9.588;2023-05-20T10:58:55;98645.97;;;20.07;50.48
5609;BME280;2826;51.354;9.588;2023-05-20T11:01:23;98628.91;;;20.13;50.97
5609;BME280;2826;51.354;9.588;2023-05-20T11:03:51;98633.50;;;20.22;51.01
5609;BME280;2826;51.354;9.588;2023-05-20T11:06:24;98628.13;;;20.23;50.12
5609;BME280;2826;51.354;9.588;2023-05-20T11:08:53;98619.66;;;20.56;49.80
5609;BME280;2826;51.354;9.588;2023-05-20T11:11:21;98633.03;;;21.13;50.05
5609;BME280;2826;51.354;9.588;2023-05-20T11:13:50;98634.63;;;21.50;48.06
5609;BME280;2826;51.354;9.588;2023-05-20T11:16:17;98627.91;;;21.46;47.01
5609;BME280;2826;51.354;9.588;2023-05-20T11:18:47;98622.50;;;21.59;46.78
5609;BME280;2826;51.354;9.588;2023-05-20T11:21:14;98623.09;;;21.62;47.83
5609;BME280;2826;51.354;9.588;2023-05-20T11:23:41;98585.19;;;21.18;46.95
5609;BME280;2826;51.354;9.588;2023-05-20T11:26:09;98585.44;;;21.14;47.42
5609;BME280;2826;51.354;9.588;2023-05-20T11:28:36;98607.41;;;21.49;46.96
5609;BME280;2826;51.354;9.588;2023-05-20T11:31:03;98617.34;;;21.57;47.94
5609;BME280;2826;51.354;9.588;2023-05-20T11:33:30;98610.16;;;21.82;46.96
5609;BME280;2826;51.354;9.588;2023-05-20T11:35:57;98602.22;;;21.93;47.33
5609;BME280;2826;51.354;9.588;2023-05-20T11:38:24;98608.16;;;22.18;46.47
5609;BME280;2826;51.354;9.588;2023-05-20T11:40:53;98599.50;;;22.28;45.76
5609;BME280;2826;51.354;9.588;2023-05-20T11:43:22;98595.66;;;22.21;46.11
5609;BME280;2826;51.354;9.588;2023-05-20T11:45:52;98592.88;;;22.34;45.40
5609;BME280;2826;51.354;9.588;2023-05-20T11:48:19;98585.97;;;22.42;44.36
5609;BME280;2826;51.354;9.588;2023-05-20T11:50:46;98596.75;;;22.62;45.45
5609;BME280;2826;51.354;9.588;2023-05-20T11:53:15;98597.66;;;22.73;45.00
5609;BME280;2826;51.354;9.588;2023-05-20T11:55:47;98595.25;;;23.12;44.97
5609;BME280;2826;51.354;9.588;2023-05-20T11:58:15;98589.06;;;23.02;44.02
5609;BME280;2826;51.354;9.588;2023-05-20T12:00:43;98599.19;;;23.18;43.78
5609;BME280;2826;51.354;9.588;2023-05-20T12:03:10;98597.59;;;22.84;43.53
5609;BME280;2826;51.354;9.588;2023-05-20T12:05:37;98603.97;;;23.03;43.81
5609;BME280;2826;51.354;9.588;2023-05-20T12:08:04;98603.34;;;22.89;44.49
5609;BME280;2826;51.354;9.588;2023-05-20T12:10:31;98606.31;;;22.96;44.86
5609;BME280;2826;51.354;9.588;2023-05-20T12:12:57;98607.66;;;23.43;44.31
5609;BME280;2826;51.354;9.588;2023-05-20T12:15:24;98609.91;;;23.79;43.33
5609;BME280;2826;51.354;9.588;2023-05-20T12:17:52;98579.97;;;24.08;43.19
5609;BME280;2826;51.354;9.588;2023-05-20T12:20:21;98577.50;;;24.46;41.74
5609;BME280;2826;51.354;9.588;2023-05-20T12:22:48;98577.91;;;24.51;41.27
5609;BME280;2826;51.354;9.588;2023-05-20T12:25:16;98590.91;;;24.54;42.29
5609;BME280;2826;51.354;9.588;2023-05-20T12:27:44;98579.75;;;24.50;40.36
5609;BME280;2826;51.354;9.588;2023-05-20T12:30:15;98582.94;;;24.84;41.34
5609;BME280;2826;51.354;9.588;2023-05-20T12:32:42;98572.75;;;24.79;40.45
5609;BME280;2826;51.354;9.588;2023-05-20T12:35:10;98569.41;;;24.67;40.82
5609;BME280;2826;51.354;9.588;2023-05-20T12:37:37;98567.19;;;24.62;40.97
5609;BME280;2826;51.354;9.588;2023-05-20T12:40:06;98569.28;;;24.59;40.40
5609;BME280;2826;51.354;9.588;2023-05-20T12:42:34;98580.72;;;24.49;41.02
5609;BME280;2826;51.354;9.588;2023-05-20T12:45:01;98579.47;;;24.44;40.46
5609;BME280;2826;51.354;9.588;2023-05-20T12:47:27;98565.25;;;24.15;41.57
5609;BME280;2826;51.354;9.588;2023-05-20T12:49:54;98578.78;;;24.22;41.81
5609;BME280;2826;51.354;9.588;2023-05-20T12:52:22;98568.53;;;23.97;42.22
5609;BME280;2826;51.354;9.588;2023-05-20T12:54:49;98566.09;;;23.65;41.61
5609;BME280;2826;51.354;9.588;2023-05-20T12:57:15;98573.81;;;23.36;42.20
5609;BME280;2826;51.354;9.588;2023-05-20T12:59:43;98579.53;;;22.89;43.16
5609;BME280;2826;51.354;9.588;2023-05-20T13:02:10;98579.16;;;22.40;43.95
5609;BME280;2826;51.354;9.588;2023-05-20T13:04:36;98577.50;;;22.27;44.71
5609;BME280;2826;51.354;9.588;2023-05-20T13:07:03;98568.22;;;22.12;44.94
5609;BME280;2826;51.354;9.588;2023-05-20T13:09:31;98559.16;;;21.93;45.68
5609;BME280;2826;51.354;9.588;2023-05-20T13:11:58;98558.41;;;22.02;46.47
5609;BME280;2826;51.354;9.588;2023-05-20T13:14:25;98568.56;;;22.07;46.38
5609;BME280;2826;51.354;9.588;2023-05-20T13:16:52;98551.31;;;22.03;46.49
5609;BME280;2826;51.354;9.588;2023-05-20T13:19:19;98551.00;;;21.85;46.63
5609;BME280;2826;51.354;9.588;2023-05-20T13:21:47;98545.13;;;21.70;46.92
5609;BME280;2826;51.354;9.588;2023-05-20T13:24:13;98536.97;;;21.84;47.02
5609;BME280;2826;51.354;9.588;2023-05-20T13:26:42;98528.69;;;22.22;46.41